RKSM METAR and TAF | Updated Today

RKSM METAR

Seoul Air Base (K-16)

Observation time: 52 min. ago

RKSM 011500Z 33006KT 9999 SKC M02/M12 A3031

Need help? Read our tutorial on how to read METARs or read the parsed version below.

Seoul Air Base (K-16) (RKSM) METAR

  • Weather conditions on Wed, 01 Feb 2023 15:00:00 +0000 (52 min. ago):
  • Present conditions: Dry
  • Clouds: No significant changes expected
  • Visibility: Greater than 10 km
  • Wind: 330 degrees at 6 knots
  • Temperature: -2 celsius
  • Dew point: -12 celsius
  • Pressure: 30.31 millibars
  • Remarks: None


Useful to know...

RKSM TAF

Seoul Air Base (K-16)

TAF RKSM 011100Z 0112/0218 30008KT 9999 SCT200 TNM06/0121Z TX02/0206Z
Observation time: 4:52 hr. ago
Need help? Read our tutorial on how to read TAFs or read the parsed version below.

Parsed version of TAF for Seoul Air Base (K-16) (RKSM)

  • From 01 February at 12:00 UTC, to day 02 of the month at 18:00 UTC
  • Clouds: Scattered at 6096 meters
  • Visibility: Greater than 10 km
  • Wind: 300 degrees at 8